WON2404 WAHI-WARR
Flight info
| Callsign | WON2404 |
|---|---|
| Flight time | 0h 58m |
| Altitude | 17000 |
| Route | SO DCT BA |
| Aircraft | AT76/M-SDFGIRY/S |
Departure
| Time | 2026-04-24 03:53 |
|---|---|
| Airport | Yogyakarta International Airport (WAHI) |
Arrival
| Time | 2026-04-24 04:51 |
|---|---|
| Airport | Juanda International Airport (WARR) |
| Time | Latitude | Longitude | Altitude | Speed | Heading |
|---|---|---|---|---|---|
| 2026-04-24 03:27 | -7.90199 | 110.06068 | 34 ft | 0 kts | 18° |
| 2026-04-24 03:46 | -7.90199 | 110.06069 | 34 ft | 0 kts | 21° |
| 2026-04-24 03:47 | -7.90199 | 110.06071 | 34 ft | 0 kts | 60° |
| 2026-04-24 03:47 | -7.90204 | 110.06075 | 34 ft | 1 kts | 143° |
| 2026-04-24 03:47 | -7.90227 | 110.06080 | 34 ft | 7 kts | 164° |
| 2026-04-24 03:47 | -7.90294 | 110.06100 | 34 ft | 11 kts | 157° |
| 2026-04-24 03:48 | -7.90334 | 110.06174 | 34 ft | 13 kts | 111° |
| 2026-04-24 03:48 | -7.90368 | 110.06270 | 34 ft | 15 kts | 110° |
| 2026-04-24 03:48 | -7.90396 | 110.06347 | 34 ft | 18 kts | 111° |
| 2026-04-24 03:48 | -7.90440 | 110.06461 | 34 ft | 17 kts | 111° |
| 2026-04-24 03:49 | -7.90489 | 110.06512 | 34 ft | 7 kts | 179° |
| 2026-04-24 03:49 | -7.90570 | 110.06480 | 35 ft | 18 kts | 201° |
| 2026-04-24 03:49 | -7.90645 | 110.06528 | 35 ft | 15 kts | 109° |
| 2026-04-24 03:49 | -7.90688 | 110.06648 | 35 ft | 23 kts | 110° |
| 2026-04-24 03:50 | -7.90753 | 110.06827 | 37 ft | 31 kts | 110° |
| 2026-04-24 03:50 | -7.90831 | 110.07040 | 39 ft | 29 kts | 110° |
| 2026-04-24 03:50 | -7.90903 | 110.07104 | 40 ft | 9 kts | 205° |
| 2026-04-24 03:50 | -7.90935 | 110.07059 | 41 ft | 7 kts | 241° |
| 2026-04-24 03:51 | -7.90959 | 110.07015 | 41 ft | 7 kts | 241° |
| 2026-04-24 03:51 | -7.90981 | 110.06976 | 41 ft | 6 kts | 242° |
| 2026-04-24 03:51 | -7.90980 | 110.06949 | 40 ft | 1 kts | 289° |
| 2026-04-24 03:51 | -7.90975 | 110.06936 | 40 ft | 3 kts | 289° |
| 2026-04-24 03:52 | -7.90967 | 110.06910 | 40 ft | 4 kts | 288° |
| 2026-04-24 03:52 | -7.90917 | 110.06773 | 40 ft | 51 kts | 291° |
| 2026-04-24 03:52 | -7.90723 | 110.06242 | 38 ft | 109 kts | 289° |
| 2026-04-24 03:52 | -7.90425 | 110.05413 | 212 ft | 136 kts | 290° |
| 2026-04-24 03:53 | -7.90097 | 110.04534 | 767 ft | 137 kts | 290° |
| 2026-04-24 03:53 | -7.89934 | 110.03585 | 1222 ft | 149 kts | 276° |
| 2026-04-24 03:53 | -7.89642 | 110.02468 | 1502 ft | 171 kts | 288° |
| 2026-04-24 03:53 | -7.89304 | 110.01353 | 2338 ft | 162 kts | 286° |
| 2026-04-24 03:54 | -7.89000 | 110.00285 | 2967 ft | 157 kts | 290° |
| 2026-04-24 03:54 | -7.88655 | 109.99240 | 3493 ft | 157 kts | 291° |
| 2026-04-24 03:54 | -7.88308 | 109.98194 | 4024 ft | 157 kts | 292° |
| 2026-04-24 03:54 | -7.87961 | 109.97141 | 4506 ft | 159 kts | 292° |
| 2026-04-24 03:55 | -7.87594 | 109.96033 | 4685 ft | 176 kts | 292° |
| 2026-04-24 03:55 | -7.87179 | 109.94813 | 4822 ft | 189 kts | 292° |
| 2026-04-24 03:55 | -7.86751 | 109.93557 | 5132 ft | 190 kts | 292° |
| 2026-04-24 03:55 | -7.86325 | 109.92293 | 5439 ft | 191 kts | 292° |
| 2026-04-24 03:56 | -7.85902 | 109.91021 | 5748 ft | 192 kts | 291° |
| 2026-04-24 03:56 | -7.85482 | 109.89757 | 6049 ft | 193 kts | 291° |
| 2026-04-24 03:56 | -7.85060 | 109.88471 | 6354 ft | 194 kts | 291° |
| 2026-04-24 03:56 | -7.84636 | 109.87180 | 6651 ft | 195 kts | 291° |
| 2026-04-24 03:57 | -7.84207 | 109.85880 | 6922 ft | 195 kts | 293° |
| 2026-04-24 03:57 | -7.83507 | 109.84756 | 7154 ft | 189 kts | 327° |
| 2026-04-24 03:57 | -7.82277 | 109.84446 | 7435 ft | 184 kts | 8° |
| 2026-04-24 03:57 | -7.81001 | 109.84641 | 7719 ft | 186 kts | 11° |
| 2026-04-24 03:58 | -7.79727 | 109.84876 | 8014 ft | 187 kts | 12° |
| 2026-04-24 03:58 | -7.78549 | 109.85367 | 8253 ft | 187 kts | 44° |
| 2026-04-24 03:58 | -7.78058 | 109.86564 | 8534 ft | 193 kts | 89° |
| 2026-04-24 03:58 | -7.78241 | 109.87914 | 8800 ft | 196 kts | 97° |
| 2026-04-24 03:59 | -7.78482 | 109.89269 | 9062 ft | 197 kts | 98° |
| 2026-04-24 03:59 | -7.78661 | 109.90632 | 9321 ft | 195 kts | 90° |
| 2026-04-24 03:59 | -7.78675 | 109.92004 | 9552 ft | 196 kts | 86° |
| 2026-04-24 03:59 | -7.78653 | 109.93382 | 9825 ft | 197 kts | 86° |
| 2026-04-24 04:00 | -7.78633 | 109.94768 | 10064 ft | 198 kts | 87° |
| 2026-04-24 04:00 | -7.78636 | 109.96161 | 10294 ft | 199 kts | 88° |
| 2026-04-24 04:00 | -7.78655 | 109.97559 | 10517 ft | 200 kts | 88° |
| 2026-04-24 04:00 | -7.78677 | 109.98945 | 10738 ft | 201 kts | 89° |
| 2026-04-24 04:01 | -7.78702 | 110.00360 | 10961 ft | 202 kts | 89° |
| 2026-04-24 04:01 | -7.78726 | 110.01777 | 11193 ft | 203 kts | 89° |
| 2026-04-24 04:01 | -7.78750 | 110.03200 | 11426 ft | 203 kts | 89° |
| 2026-04-24 04:01 | -7.78775 | 110.04630 | 11637 ft | 205 kts | 89° |
| 2026-04-24 04:02 | -7.78799 | 110.06069 | 11873 ft | 205 kts | 89° |
| 2026-04-24 04:02 | -7.78823 | 110.07513 | 12076 ft | 206 kts | 89° |
| 2026-04-24 04:02 | -7.78848 | 110.08960 | 12280 ft | 207 kts | 89° |
| 2026-04-24 04:02 | -7.78871 | 110.10415 | 12490 ft | 207 kts | 89° |
| 2026-04-24 04:03 | -7.78897 | 110.11875 | 12682 ft | 208 kts | 89° |
| 2026-04-24 04:03 | -7.78931 | 110.13337 | 12899 ft | 209 kts | 90° |
| 2026-04-24 04:03 | -7.78966 | 110.14804 | 13082 ft | 210 kts | 89° |
| 2026-04-24 04:03 | -7.78996 | 110.16274 | 13284 ft | 210 kts | 89° |
| 2026-04-24 04:04 | -7.79025 | 110.17731 | 13476 ft | 211 kts | 89° |
| 2026-04-24 04:04 | -7.79050 | 110.19212 | 13671 ft | 212 kts | 89° |
| 2026-04-24 04:04 | -7.79071 | 110.20703 | 13862 ft | 212 kts | 89° |
| 2026-04-24 04:04 | -7.79085 | 110.22195 | 14041 ft | 213 kts | 89° |
| 2026-04-24 04:05 | -7.79135 | 110.23695 | 14199 ft | 215 kts | 93° |
| 2026-04-24 04:05 | -7.79313 | 110.25192 | 14382 ft | 216 kts | 96° |
| 2026-04-24 04:05 | -7.79521 | 110.26697 | 14574 ft | 216 kts | 96° |
| 2026-04-24 04:05 | -7.79726 | 110.28199 | 14751 ft | 217 kts | 96° |
| 2026-04-24 04:06 | -7.79914 | 110.29710 | 14921 ft | 217 kts | 94° |
| 2026-04-24 04:06 | -7.79865 | 110.31208 | 15064 ft | 214 kts | 68° |
| 2026-04-24 04:06 | -7.79168 | 110.32523 | 15183 ft | 213 kts | 55° |
| 2026-04-24 04:06 | -7.78320 | 110.33749 | 15309 ft | 214 kts | 53° |
| 2026-04-24 04:07 | -7.77469 | 110.34955 | 15462 ft | 214 kts | 54° |
| 2026-04-24 04:07 | -7.76613 | 110.36187 | 15604 ft | 215 kts | 54° |
| 2026-04-24 04:07 | -7.75764 | 110.37435 | 15765 ft | 216 kts | 55° |
| 2026-04-24 04:07 | -7.74932 | 110.38696 | 15954 ft | 216 kts | 55° |
| 2026-04-24 04:08 | -7.74105 | 110.39969 | 16119 ft | 217 kts | 56° |
| 2026-04-24 04:08 | -7.73281 | 110.41244 | 16285 ft | 218 kts | 56° |
| 2026-04-24 04:08 | -7.72457 | 110.42526 | 16450 ft | 218 kts | 56° |
| 2026-04-24 04:08 | -7.71628 | 110.43806 | 16606 ft | 218 kts | 55° |
| 2026-04-24 04:09 | -7.70796 | 110.45085 | 16737 ft | 219 kts | 55° |
| 2026-04-24 04:09 | -7.69954 | 110.46378 | 16817 ft | 222 kts | 56° |
| 2026-04-24 04:09 | -7.69096 | 110.47700 | 16849 ft | 228 kts | 56° |
| 2026-04-24 04:09 | -7.68222 | 110.49054 | 16871 ft | 233 kts | 56° |
| 2026-04-24 04:10 | -7.67330 | 110.50435 | 16865 ft | 238 kts | 56° |
| 2026-04-24 04:10 | -7.66416 | 110.51839 | 16865 ft | 241 kts | 56° |
| 2026-04-24 04:10 | -7.65488 | 110.53258 | 16867 ft | 243 kts | 55° |
| 2026-04-24 04:11 | -7.63616 | 110.56125 | 16868 ft | 247 kts | 56° |
| 2026-04-24 04:11 | -7.62679 | 110.57557 | 16870 ft | 249 kts | 56° |
| 2026-04-24 04:11 | -7.61724 | 110.59017 | 16867 ft | 250 kts | 56° |
| 2026-04-24 04:11 | -7.60768 | 110.60480 | 16872 ft | 250 kts | 56° |
| 2026-04-24 04:12 | -7.59807 | 110.61947 | 16874 ft | 251 kts | 55° |
| 2026-04-24 04:12 | -7.58845 | 110.63416 | 16876 ft | 252 kts | 56° |
| 2026-04-24 04:12 | -7.57880 | 110.64890 | 16871 ft | 252 kts | 56° |
| 2026-04-24 04:12 | -7.56915 | 110.66374 | 16860 ft | 253 kts | 56° |
| 2026-04-24 04:13 | -7.55948 | 110.67854 | 16865 ft | 252 kts | 56° |
| 2026-04-24 04:13 | -7.54984 | 110.69326 | 16863 ft | 252 kts | 56° |
| 2026-04-24 04:13 | -7.54023 | 110.70800 | 16865 ft | 251 kts | 56° |
| 2026-04-24 04:13 | -7.53073 | 110.72250 | 16870 ft | 251 kts | 55° |
| 2026-04-24 04:14 | -7.52108 | 110.73723 | 16875 ft | 252 kts | 56° |
| 2026-04-24 04:14 | -7.51137 | 110.75195 | 16876 ft | 253 kts | 54° |
| 2026-04-24 04:14 | -7.50067 | 110.76603 | 16862 ft | 252 kts | 50° |
| 2026-04-24 04:14 | -7.48957 | 110.77969 | 16858 ft | 252 kts | 50° |
| 2026-04-24 04:15 | -7.47845 | 110.79333 | 16868 ft | 252 kts | 50° |
| 2026-04-24 04:15 | -7.46743 | 110.80714 | 16865 ft | 253 kts | 51° |
| 2026-04-24 04:15 | -7.45658 | 110.82108 | 16859 ft | 253 kts | 51° |
| 2026-04-24 04:15 | -7.44573 | 110.83507 | 16862 ft | 253 kts | 51° |
| 2026-04-24 04:16 | -7.43491 | 110.84910 | 16859 ft | 253 kts | 51° |
| 2026-04-24 04:16 | -7.42419 | 110.86287 | 16864 ft | 253 kts | 51° |
| 2026-04-24 04:16 | -7.41335 | 110.87682 | 16861 ft | 253 kts | 51° |
| 2026-04-24 04:16 | -7.40253 | 110.89074 | 16860 ft | 252 kts | 51° |
| 2026-04-24 04:17 | -7.39178 | 110.90469 | 16861 ft | 252 kts | 51° |
| 2026-04-24 04:17 | -7.38098 | 110.91862 | 16869 ft | 253 kts | 51° |
| 2026-04-24 04:17 | -7.37013 | 110.93255 | 16866 ft | 253 kts | 51° |
| 2026-04-24 04:17 | -7.35928 | 110.94654 | 16862 ft | 253 kts | 51° |
| 2026-04-24 04:18 | -7.34843 | 110.96053 | 16859 ft | 253 kts | 51° |
| 2026-04-24 04:18 | -7.33759 | 110.97451 | 16855 ft | 253 kts | 51° |
| 2026-04-24 04:18 | -7.32676 | 110.98845 | 16859 ft | 252 kts | 51° |
| 2026-04-24 04:18 | -7.31594 | 111.00236 | 16859 ft | 252 kts | 51° |
| 2026-04-24 04:19 | -7.30513 | 111.01631 | 16853 ft | 252 kts | 51° |
| 2026-04-24 04:19 | -7.29443 | 111.03010 | 16860 ft | 252 kts | 51° |
| 2026-04-24 04:19 | -7.28360 | 111.04404 | 16853 ft | 253 kts | 51° |
| 2026-04-24 04:19 | -7.27279 | 111.05799 | 16863 ft | 253 kts | 51° |
| 2026-04-24 04:20 | -7.26192 | 111.07197 | 16858 ft | 253 kts | 51° |
| 2026-04-24 04:20 | -7.25106 | 111.08597 | 16855 ft | 254 kts | 52° |
| 2026-04-24 04:20 | -7.24021 | 111.09995 | 16857 ft | 254 kts | 51° |
| 2026-04-24 04:20 | -7.22930 | 111.11402 | 16849 ft | 254 kts | 51° |
| 2026-04-24 04:21 | -7.21842 | 111.12802 | 16846 ft | 253 kts | 51° |
| 2026-04-24 04:21 | -7.21122 | 111.13725 | 16849 ft | 253 kts | 51° |
| 2026-04-24 04:21 | -7.20038 | 111.15121 | 16862 ft | 253 kts | 51° |
| 2026-04-24 04:21 | -7.18586 | 111.16992 | 16854 ft | 254 kts | 52° |
| 2026-04-24 04:22 | -7.17864 | 111.17926 | 16852 ft | 254 kts | 51° |
| 2026-04-24 04:22 | -7.16776 | 111.19323 | 16860 ft | 254 kts | 51° |
| 2026-04-24 04:22 | -7.15684 | 111.20725 | 16857 ft | 254 kts | 51° |
| 2026-04-24 04:22 | -7.14596 | 111.22126 | 16855 ft | 254 kts | 51° |
| 2026-04-24 04:23 | -7.13502 | 111.23533 | 16857 ft | 255 kts | 52° |
| 2026-04-24 04:23 | -7.12407 | 111.24943 | 16855 ft | 255 kts | 51° |
| 2026-04-24 04:23 | -7.11324 | 111.26334 | 16847 ft | 255 kts | 51° |
| 2026-04-24 04:23 | -7.10231 | 111.27742 | 16851 ft | 255 kts | 51° |
| 2026-04-24 04:24 | -7.09139 | 111.29148 | 16848 ft | 254 kts | 51° |
| 2026-04-24 04:24 | -7.08048 | 111.30550 | 16853 ft | 253 kts | 51° |
| 2026-04-24 04:24 | -7.06963 | 111.31945 | 16854 ft | 253 kts | 51° |
| 2026-04-24 04:24 | -7.05876 | 111.33342 | 16853 ft | 253 kts | 52° |
| 2026-04-24 04:25 | -7.04792 | 111.34737 | 16856 ft | 253 kts | 52° |
| 2026-04-24 04:25 | -7.03709 | 111.36131 | 16855 ft | 253 kts | 51° |
| 2026-04-24 04:25 | -7.02635 | 111.37509 | 16853 ft | 253 kts | 52° |
| 2026-04-24 04:25 | -7.01550 | 111.38906 | 16853 ft | 253 kts | 52° |
| 2026-04-24 04:26 | -7.00466 | 111.40302 | 16852 ft | 253 kts | 52° |
| 2026-04-24 04:26 | -6.99688 | 111.41852 | 16850 ft | 251 kts | 79° |
| 2026-04-24 04:26 | -6.99708 | 111.43612 | 16854 ft | 253 kts | 97° |
| 2026-04-24 04:26 | -7.00099 | 111.45352 | 16853 ft | 256 kts | 104° |
| 2026-04-24 04:27 | -7.00632 | 111.47060 | 16851 ft | 256 kts | 106° |
| 2026-04-24 04:27 | -7.01185 | 111.48768 | 16851 ft | 256 kts | 106° |
| 2026-04-24 04:27 | -7.01719 | 111.50482 | 16857 ft | 257 kts | 105° |
| 2026-04-24 04:27 | -7.02215 | 111.52208 | 16862 ft | 257 kts | 104° |
| 2026-04-24 04:28 | -7.02699 | 111.53941 | 16848 ft | 257 kts | 103° |
| 2026-04-24 04:28 | -7.03181 | 111.55653 | 16851 ft | 257 kts | 104° |
| 2026-04-24 04:28 | -7.03668 | 111.57386 | 16859 ft | 257 kts | 104° |
| 2026-04-24 04:28 | -7.04153 | 111.59120 | 16852 ft | 258 kts | 104° |
| 2026-04-24 04:29 | -7.04639 | 111.60859 | 16852 ft | 257 kts | 104° |
| 2026-04-24 04:29 | -7.05127 | 111.62592 | 16852 ft | 257 kts | 104° |
| 2026-04-24 04:29 | -7.05610 | 111.64320 | 16859 ft | 257 kts | 104° |
| 2026-04-24 04:29 | -7.06103 | 111.66050 | 16853 ft | 257 kts | 104° |
| 2026-04-24 04:30 | -7.06600 | 111.67782 | 16845 ft | 257 kts | 104° |
| 2026-04-24 04:30 | -7.07090 | 111.69513 | 16846 ft | 257 kts | 104° |
| 2026-04-24 04:30 | -7.07572 | 111.71215 | 16860 ft | 257 kts | 104° |
| 2026-04-24 04:30 | -7.08060 | 111.72946 | 16865 ft | 257 kts | 104° |
| 2026-04-24 04:31 | -7.08548 | 111.74688 | 16853 ft | 258 kts | 104° |
| 2026-04-24 04:31 | -7.09038 | 111.76430 | 16847 ft | 258 kts | 104° |
| 2026-04-24 04:31 | -7.09527 | 111.78167 | 16852 ft | 257 kts | 104° |
| 2026-04-24 04:31 | -7.10016 | 111.79900 | 16850 ft | 257 kts | 104° |
| 2026-04-24 04:32 | -7.10510 | 111.81632 | 16854 ft | 257 kts | 104° |
| 2026-04-24 04:32 | -7.11004 | 111.83363 | 16856 ft | 258 kts | 104° |
| 2026-04-24 04:32 | -7.11495 | 111.85100 | 16851 ft | 258 kts | 104° |
| 2026-04-24 04:32 | -7.11987 | 111.86843 | 16779 ft | 262 kts | 104° |
| 2026-04-24 04:33 | -7.12490 | 111.88632 | 16358 ft | 277 kts | 104° |
| 2026-04-24 04:33 | -7.13032 | 111.90530 | 16014 ft | 283 kts | 105° |
| 2026-04-24 04:33 | -7.13583 | 111.92433 | 15576 ft | 282 kts | 105° |
| 2026-04-24 04:33 | -7.14130 | 111.94327 | 15168 ft | 280 kts | 104° |
| 2026-04-24 04:34 | -7.14660 | 111.96209 | 14772 ft | 278 kts | 104° |
| 2026-04-24 04:34 | -7.15189 | 111.98076 | 14418 ft | 276 kts | 104° |
| 2026-04-24 04:34 | -7.15716 | 111.99938 | 14040 ft | 274 kts | 105° |
| 2026-04-24 04:34 | -7.16340 | 112.01691 | 14047 ft | 258 kts | 111° |
| 2026-04-24 04:35 | -7.17057 | 112.03301 | 14015 ft | 246 kts | 113° |
| 2026-04-24 04:35 | -7.17771 | 112.04844 | 13887 ft | 241 kts | 113° |
| 2026-04-24 04:35 | -7.18467 | 112.06376 | 13590 ft | 239 kts | 112° |
| 2026-04-24 04:35 | -7.19121 | 112.07876 | 13073 ft | 236 kts | 111° |
| 2026-04-24 04:36 | -7.19767 | 112.09384 | 12460 ft | 233 kts | 111° |
| 2026-04-24 04:36 | -7.20398 | 112.10875 | 11902 ft | 229 kts | 111° |
| 2026-04-24 04:36 | -7.21020 | 112.12344 | 11286 ft | 227 kts | 111° |
| 2026-04-24 04:36 | -7.21636 | 112.13799 | 10690 ft | 224 kts | 111° |
| 2026-04-24 04:37 | -7.22245 | 112.15234 | 10115 ft | 221 kts | 111° |
| 2026-04-24 04:37 | -7.22847 | 112.16659 | 9659 ft | 222 kts | 110° |
| 2026-04-24 04:37 | -7.23451 | 112.18081 | 9468 ft | 220 kts | 111° |
| 2026-04-24 04:37 | -7.24054 | 112.19494 | 9209 ft | 219 kts | 111° |
| 2026-04-24 04:38 | -7.24654 | 112.20898 | 8968 ft | 218 kts | 111° |
| 2026-04-24 04:38 | -7.25255 | 112.22298 | 8758 ft | 217 kts | 111° |
| 2026-04-24 04:38 | -7.25857 | 112.23690 | 8594 ft | 216 kts | 111° |
| 2026-04-24 04:38 | -7.26459 | 112.25072 | 8369 ft | 215 kts | 111° |
| 2026-04-24 04:39 | -7.27048 | 112.26452 | 8112 ft | 215 kts | 111° |
| 2026-04-24 04:39 | -7.27623 | 112.27815 | 7903 ft | 213 kts | 111° |
| 2026-04-24 04:39 | -7.28202 | 112.29191 | 7683 ft | 213 kts | 111° |
| 2026-04-24 04:39 | -7.28779 | 112.30556 | 7481 ft | 211 kts | 111° |
| 2026-04-24 04:40 | -7.29357 | 112.31916 | 7325 ft | 211 kts | 111° |
| 2026-04-24 04:40 | -7.29893 | 112.33284 | 7102 ft | 209 kts | 104° |
| 2026-04-24 04:40 | -7.30199 | 112.34708 | 6929 ft | 207 kts | 98° |
| 2026-04-24 04:40 | -7.30434 | 112.36136 | 6746 ft | 206 kts | 97° |
| 2026-04-24 04:41 | -7.30670 | 112.37559 | 6565 ft | 205 kts | 98° |
| 2026-04-24 04:41 | -7.30927 | 112.38973 | 6377 ft | 206 kts | 99° |
| 2026-04-24 04:41 | -7.31198 | 112.40343 | 6276 ft | 192 kts | 100° |
| 2026-04-24 04:41 | -7.31452 | 112.41616 | 6011 ft | 182 kts | 99° |
| 2026-04-24 04:42 | -7.31700 | 112.42857 | 5673 ft | 179 kts | 100° |
| 2026-04-24 04:42 | -7.31956 | 112.44086 | 5303 ft | 179 kts | 100° |
| 2026-04-24 04:42 | -7.32216 | 112.45311 | 4970 ft | 178 kts | 100° |
| 2026-04-24 04:42 | -7.32462 | 112.46528 | 4645 ft | 177 kts | 99° |
| 2026-04-24 04:43 | -7.32707 | 112.47744 | 4330 ft | 177 kts | 101° |
| 2026-04-24 04:43 | -7.32967 | 112.48947 | 3988 ft | 175 kts | 101° |
| 2026-04-24 04:43 | -7.33204 | 112.50145 | 3758 ft | 171 kts | 99° |
| 2026-04-24 04:43 | -7.33422 | 112.51273 | 3612 ft | 163 kts | 99° |
| 2026-04-24 04:44 | -7.33647 | 112.52449 | 3530 ft | 178 kts | 99° |
| 2026-04-24 04:44 | -7.33878 | 112.53678 | 3493 ft | 180 kts | 99° |
| 2026-04-24 04:44 | -7.34114 | 112.54924 | 3230 ft | 175 kts | 100° |
| 2026-04-24 04:44 | -7.34330 | 112.56128 | 3097 ft | 177 kts | 99° |
| 2026-04-24 04:45 | -7.34534 | 112.57369 | 2918 ft | 182 kts | 97° |
| 2026-04-24 04:45 | -7.34726 | 112.58591 | 2704 ft | 171 kts | 98° |
| 2026-04-24 04:45 | -7.34911 | 112.59781 | 2582 ft | 177 kts | 97° |
| 2026-04-24 04:45 | -7.35091 | 112.60984 | 2413 ft | 169 kts | 98° |
| 2026-04-24 04:46 | -7.35284 | 112.62124 | 2213 ft | 160 kts | 99° |
| 2026-04-24 04:46 | -7.35466 | 112.63215 | 2021 ft | 156 kts | 99° |
| 2026-04-24 04:46 | -7.35658 | 112.64288 | 1906 ft | 157 kts | 98° |
| 2026-04-24 04:46 | -7.35819 | 112.65374 | 1758 ft | 160 kts | 98° |
| 2026-04-24 04:47 | -7.35992 | 112.66478 | 1572 ft | 158 kts | 97° |
| 2026-04-24 04:47 | -7.36164 | 112.67569 | 1446 ft | 157 kts | 99° |
| 2026-04-24 04:47 | -7.36334 | 112.68624 | 1358 ft | 150 kts | 98° |
| 2026-04-24 04:47 | -7.36506 | 112.69656 | 1203 ft | 147 kts | 97° |
| 2026-04-24 04:48 | -7.36670 | 112.70652 | 1035 ft | 141 kts | 98° |
| 2026-04-24 04:48 | -7.36814 | 112.71544 | 928 ft | 120 kts | 99° |
| 2026-04-24 04:48 | -7.36949 | 112.72340 | 813 ft | 111 kts | 97° |
| 2026-04-24 04:48 | -7.37063 | 112.73094 | 664 ft | 106 kts | 98° |
| 2026-04-24 04:49 | -7.37174 | 112.73838 | 543 ft | 108 kts | 99° |
| 2026-04-24 04:49 | -7.37299 | 112.74581 | 433 ft | 108 kts | 99° |
| 2026-04-24 04:49 | -7.37426 | 112.75334 | 345 ft | 108 kts | 103° |
| 2026-04-24 04:49 | -7.37562 | 112.76060 | 236 ft | 102 kts | 99° |
| 2026-04-24 04:50 | -7.37676 | 112.76759 | 127 ft | 101 kts | 100° |
| 2026-04-24 04:50 | -7.37785 | 112.77459 | 34 ft | 100 kts | 100° |
| 2026-04-24 04:50 | -7.37892 | 112.78115 | 6 ft | 84 kts | 99° |
| 2026-04-24 04:50 | -7.37969 | 112.78600 | 6 ft | 55 kts | 100° |
| 2026-04-24 04:51 | -7.37986 | 112.78840 | 6 ft | 15 kts | 49° |
| 2026-04-24 04:51 | -7.37888 | 112.78869 | 6 ft | 18 kts | 9° |
| 2026-04-24 04:51 | -7.37713 | 112.78898 | 5 ft | 27 kts | 15° |
| 2026-04-24 04:51 | -7.37679 | 112.79071 | 5 ft | 27 kts | 68° |
| 2026-04-24 04:52 | -7.37568 | 112.79181 | 5 ft | 20 kts | 15° |
| 2026-04-24 04:52 | -7.37548 | 112.79185 | 5 ft | 0 kts | 9° |